sensor_id;sensor_type;location;lat;lon;timestamp;P1;durP1;ratioP1;P2;durP2;ratioP2
14342;SDS011;7255;53.596;9.960;2023-10-09T00:00:12;2.67;;;2.25;;
14342;SDS011;7255;53.596;9.960;2023-10-09T00:03:01;2.72;;;2.50;;
14342;SDS011;7255;53.596;9.960;2023-10-09T00:05:30;4.00;;;2.30;;
14342;SDS011;7255;53.596;9.960;2023-10-09T00:08:04;5.70;;;2.72;;
14342;SDS011;7255;53.596;9.960;2023-10-09T00:10:33;3.70;;;2.33;;
14342;SDS011;7255;53.596;9.960;2023-10-09T00:13:10;2.87;;;2.05;;
14342;SDS011;7255;53.596;9.960;2023-10-09T00:15:37;2.65;;;2.00;;
14342;SDS011;7255;53.596;9.960;2023-10-09T00:18:03;3.33;;;2.62;;
14342;SDS011;7255;53.596;9.960;2023-10-09T00:20:38;5.80;;;2.00;;
14342;SDS011;7255;53.596;9.960;2023-10-09T00:23:07;5.53;;;2.55;;
14342;SDS011;7255;53.596;9.960;2023-10-09T00:25:39;3.80;;;2.47;;
14342;SDS011;7255;53.596;9.960;2023-10-09T00:28:11;2.15;;;2.00;;
14342;SDS011;7255;53.596;9.960;2023-10-09T00:30:40;4.37;;;2.75;;
14342;SDS011;7255;53.596;9.960;2023-10-09T00:33:07;3.70;;;2.30;;
14342;SDS011;7255;53.596;9.960;2023-10-09T00:35:36;4.22;;;2.62;;
14342;SDS011;7255;53.596;9.960;2023-10-09T00:38:03;3.47;;;2.10;;
14342;SDS011;7255;53.596;9.960;2023-10-09T00:40:39;7.43;;;2.67;;
14342;SDS011;7255;53.596;9.960;2023-10-09T00:43:10;4.35;;;2.72;;
14342;SDS011;7255;53.596;9.960;2023-10-09T00:45:38;3.37;;;2.22;;
14342;SDS011;7255;53.596;9.960;2023-10-09T00:48:05;3.30;;;2.47;;
14342;SDS011;7255;53.596;9.960;2023-10-09T00:50:34;3.62;;;2.10;;
14342;SDS011;7255;53.596;9.960;2023-10-09T00:53:05;2.17;;;1.90;;
14342;SDS011;7255;53.596;9.960;2023-10-09T00:55:37;2.15;;;1.77;;
14342;SDS011;7255;53.596;9.960;2023-10-09T00:58:10;6.07;;;2.53;;
14342;SDS011;7255;53.596;9.960;2023-10-09T01:00:39;4.15;;;2.55;;
14342;SDS011;7255;53.596;9.960;2023-10-09T01:03:12;3.05;;;2.12;;
14342;SDS011;7255;53.596;9.960;2023-10-09T01:05:45;6.43;;;2.47;;
14342;SDS011;7255;53.596;9.960;2023-10-09T01:08:19;3.03;;;2.28;;
14342;SDS011;7255;53.596;9.960;2023-10-09T01:10:54;6.80;;;2.47;;
14342;SDS011;7255;53.596;9.960;2023-10-09T01:13:23;2.40;;;2.20;;
14342;SDS011;7255;53.596;9.960;2023-10-09T01:16:04;3.62;;;2.10;;
14342;SDS011;7255;53.596;9.960;2023-10-09T01:18:31;3.90;;;2.20;;
14342;SDS011;7255;53.596;9.960;2023-10-09T01:21:02;3.37;;;1.95;;
14342;SDS011;7255;53.596;9.960;2023-10-09T01:23:29;4.53;;;2.53;;
14342;SDS011;7255;53.596;9.960;2023-10-09T01:25:56;3.33;;;2.03;;
14342;SDS011;7255;53.596;9.960;2023-10-09T01:28:22;6.50;;;2.17;;
14342;SDS011;7255;53.596;9.960;2023-10-09T01:30:49;4.57;;;2.30;;
14342;SDS011;7255;53.596;9.960;2023-10-09T01:33:16;2.85;;;1.80;;
14342;SDS011;7255;53.596;9.960;2023-10-09T01:35:48;2.35;;;2.12;;
14342;SDS011;7255;53.596;9.960;2023-10-09T01:38:19;3.50;;;2.35;;
14342;SDS011;7255;53.596;9.960;2023-10-09T01:40:57;3.60;;;2.33;;
14342;SDS011;7255;53.596;9.960;2023-10-09T01:43:32;2.22;;;2.03;;
14342;SDS011;7255;53.596;9.960;2023-10-09T01:45:59;2.65;;;2.12;;
14342;SDS011;7255;53.596;9.960;2023-10-09T01:48:26;3.08;;;2.15;;
14342;SDS011;7255;53.596;9.960;2023-10-09T01:50:52;4.35;;;2.10;;
14342;SDS011;7255;53.596;9.960;2023-10-09T01:53:19;2.35;;;2.03;;
14342;SDS011;7255;53.596;9.960;2023-10-09T01:55:47;5.00;;;2.30;;
14342;SDS011;7255;53.596;9.960;2023-10-09T01:58:16;4.35;;;2.37;;
14342;SDS011;7255;53.596;9.960;2023-10-09T02:00:49;2.60;;;2.40;;
14342;SDS011;7255;53.596;9.960;2023-10-09T02:03:19;2.42;;;2.10;;
14342;SDS011;7255;53.596;9.960;2023-10-09T02:05:49;2.92;;;1.90;;
14342;SDS011;7255;53.596;9.960;2023-10-09T02:08:16;4.50;;;2.30;;
14342;SDS011;7255;53.596;9.960;2023-10-09T02:10:46;6.32;;;2.30;;
14342;SDS011;7255;53.596;9.960;2023-10-09T02:13:13;2.90;;;2.03;;
14342;SDS011;7255;53.596;9.960;2023-10-09T02:15:43;4.47;;;2.30;;
14342;SDS011;7255;53.596;9.960;2023-10-09T02:18:24;5.35;;;2.08;;
14342;SDS011;7255;53.596;9.960;2023-10-09T02:21:05;2.83;;;2.22;;
14342;SDS011;7255;53.596;9.960;2023-10-09T02:23:53;2.12;;;1.90;;
14342;SDS011;7255;53.596;9.960;2023-10-09T02:26:22;4.28;;;2.40;;
14342;SDS011;7255;53.596;9.960;2023-10-09T02:28:50;6.53;;;1.85;;
14342;SDS011;7255;53.596;9.960;2023-10-09T02:31:24;2.20;;;1.90;;
14342;SDS011;7255;53.596;9.960;2023-10-09T02:33:53;3.15;;;2.42;;
14342;SDS011;7255;53.596;9.960;2023-10-09T02:36:20;5.80;;;2.65;;
14342;SDS011;7255;53.596;9.960;2023-10-09T02:38:47;3.10;;;2.00;;
14342;SDS011;7255;53.596;9.960;2023-10-09T02:41:13;3.62;;;2.15;;
14342;SDS011;7255;53.596;9.960;2023-10-09T02:43:53;4.53;;;2.47;;
14342;SDS011;7255;53.596;9.960;2023-10-09T02:46:22;3.58;;;2.25;;
14342;SDS011;7255;53.596;9.960;2023-10-09T02:48:56;2.83;;;1.80;;
14342;SDS011;7255;53.596;9.960;2023-10-09T02:51:24;2.35;;;2.10;;
14342;SDS011;7255;53.596;9.960;2023-10-09T02:54:06;3.55;;;2.33;;
14342;SDS011;7255;53.596;9.960;2023-10-09T02:56:42;4.43;;;2.22;;
14342;SDS011;7255;53.596;9.960;2023-10-09T02:59:12;5.10;;;2.35;;
14342;SDS011;7255;53.596;9.960;2023-10-09T03:01:39;3.95;;;2.50;;
14342;SDS011;7255;53.596;9.960;2023-10-09T03:04:07;4.75;;;2.53;;
14342;SDS011;7255;53.596;9.960;2023-10-09T03:06:36;2.85;;;2.10;;
14342;SDS011;7255;53.596;9.960;2023-10-09T03:09:08;5.20;;;2.80;;
14342;SDS011;7255;53.596;9.960;2023-10-09T03:11:43;4.18;;;2.22;;
14342;SDS011;7255;53.596;9.960;2023-10-09T03:14:13;5.50;;;2.50;;
14342;SDS011;7255;53.596;9.960;2023-10-09T03:16:40;2.92;;;1.80;;
14342;SDS011;7255;53.596;9.960;2023-10-09T03:19:09;3.45;;;2.10;;
14342;SDS011;7255;53.596;9.960;2023-10-09T03:21:38;2.22;;;1.98;;
14342;SDS011;7255;53.596;9.960;2023-10-09T03:24:04;2.30;;;2.03;;
14342;SDS011;7255;53.596;9.960;2023-10-09T03:26:33;5.53;;;2.40;;
14342;SDS011;7255;53.596;9.960;2023-10-09T03:29:00;3.72;;;2.47;;
14342;SDS011;7255;53.596;9.960;2023-10-09T03:31:27;3.75;;;2.53;;
14342;SDS011;7255;53.596;9.960;2023-10-09T03:33:56;2.47;;;2.28;;
14342;SDS011;7255;53.596;9.960;2023-10-09T03:36:23;4.50;;;2.55;;
14342;SDS011;7255;53.596;9.960;2023-10-09T03:38:51;3.33;;;2.28;;
14342;SDS011;7255;53.596;9.960;2023-10-09T03:41:19;5.53;;;2.60;;
14342;SDS011;7255;53.596;9.960;2023-10-09T03:43:46;2.85;;;2.05;;
14342;SDS011;7255;53.596;9.960;2023-10-09T03:46:13;5.70;;;2.58;;
14342;SDS011;7255;53.596;9.960;2023-10-09T03:48:45;4.10;;;2.05;;
14342;SDS011;7255;53.596;9.960;2023-10-09T03:51:12;4.55;;;2.62;;
14342;SDS011;7255;53.596;9.960;2023-10-09T03:53:47;3.25;;;2.20;;
14342;SDS011;7255;53.596;9.960;2023-10-09T03:56:14;5.30;;;2.67;;
14342;SDS011;7255;53.596;9.960;2023-10-09T03:58:43;4.25;;;2.45;;
14342;SDS011;7255;53.596;9.960;2023-10-09T04:01:10;5.00;;;2.10;;
14342;SDS011;7255;53.596;9.960;2023-10-09T04:03:43;6.05;;;2.50;;
14342;SDS011;7255;53.596;9.960;2023-10-09T04:06:10;2.60;;;2.10;;
14342;SDS011;7255;53.596;9.960;2023-10-09T04:08:37;3.03;;;2.15;;
14342;SDS011;7255;53.596;9.960;2023-10-09T04:11:10;2.17;;;1.98;;
14342;SDS011;7255;53.596;9.960;2023-10-09T04:13:41;5.10;;;2.45;;
14342;SDS011;7255;53.596;9.960;2023-10-09T04:16:11;4.03;;;1.90;;
14342;SDS011;7255;53.596;9.960;2023-10-09T04:18:58;3.40;;;2.10;;
14342;SDS011;7255;53.596;9.960;2023-10-09T04:21:30;2.87;;;2.20;;
14342;SDS011;7255;53.596;9.960;2023-10-09T04:23:59;2.33;;;2.12;;
14342;SDS011;7255;53.596;9.960;2023-10-09T04:26:36;4.37;;;2.33;;
14342;SDS011;7255;53.596;9.960;2023-10-09T04:29:05;3.05;;;2.33;;
14342;SDS011;7255;53.596;9.960;2023-10-09T04:31:31;3.10;;;2.05;;
14342;SDS011;7255;53.596;9.960;2023-10-09T04:34:02;2.78;;;2.17;;
14342;SDS011;7255;53.596;9.960;2023-10-09T04:36:43;2.15;;;1.95;;
14342;SDS011;7255;53.596;9.960;2023-10-09T04:39:14;3.15;;;2.20;;
14342;SDS011;7255;53.596;9.960;2023-10-09T04:42:01;3.22;;;2.37;;
14342;SDS011;7255;53.596;9.960;2023-10-09T04:45:01;3.00;;;2.12;;
14342;SDS011;7255;53.596;9.960;2023-10-09T04:47:46;4.05;;;2.37;;
14342;SDS011;7255;53.596;9.960;2023-10-09T04:50:22;1.92;;;1.80;;
14342;SDS011;7255;53.596;9.960;2023-10-09T04:53:11;2.37;;;2.08;;
14342;SDS011;7255;53.596;9.960;2023-10-09T04:55:47;2.87;;;2.35;;
14342;SDS011;7255;53.596;9.960;2023-10-09T04:58:21;2.60;;;2.20;;
14342;SDS011;7255;53.596;9.960;2023-10-09T05:00:51;3.75;;;2.17;;
14342;SDS011;7255;53.596;9.960;2023-10-09T05:03:41;2.50;;;2.00;;
14342;SDS011;7255;53.596;9.960;2023-10-09T05:06:11;2.40;;;2.20;;
14342;SDS011;7255;53.596;9.960;2023-10-09T05:09:07;3.80;;;2.20;;
14342;SDS011;7255;53.596;9.960;2023-10-09T05:11:33;1.92;;;1.75;;
14342;SDS011;7255;53.596;9.960;2023-10-09T05:14:19;9.10;;;2.30;;
14342;SDS011;7255;53.596;9.960;2023-10-09T05:16:52;3.75;;;2.60;;
14342;SDS011;7255;53.596;9.960;2023-10-09T05:19:26;3.67;;;2.10;;
14342;SDS011;7255;53.596;9.960;2023-10-09T05:21:54;2.70;;;2.10;;
14342;SDS011;7255;53.596;9.960;2023-10-09T05:24:23;4.97;;;2.45;;
14342;SDS011;7255;53.596;9.960;2023-10-09T05:26:49;3.62;;;2.00;;
14342;SDS011;7255;53.596;9.960;2023-10-09T05:29:38;4.55;;;2.30;;
14342;SDS011;7255;53.596;9.960;2023-10-09T05:32:14;3.03;;;2.50;;
14342;SDS011;7255;53.596;9.960;2023-10-09T05:34:53;3.35;;;2.10;;
14342;SDS011;7255;53.596;9.960;2023-10-09T05:37:32;3.37;;;2.62;;
14342;SDS011;7255;53.596;9.960;2023-10-09T05:40:00;5.22;;;2.60;;
14342;SDS011;7255;53.596;9.960;2023-10-09T05:42:47;4.40;;;2.30;;
14342;SDS011;7255;53.596;9.960;2023-10-09T05:45:23;5.32;;;2.47;;
14342;SDS011;7255;53.596;9.960;2023-10-09T05:48:30;3.35;;;2.40;;
14342;SDS011;7255;53.596;9.960;2023-10-09T05:51:13;4.43;;;2.33;;
14342;SDS011;7255;53.596;9.960;2023-10-09T05:54:00;4.62;;;2.87;;
14342;SDS011;7255;53.596;9.960;2023-10-09T05:56:54;3.28;;;2.42;;
14342;SDS011;7255;53.596;9.960;2023-10-09T05:59:55;5.78;;;2.75;;
14342;SDS011;7255;53.596;9.960;2023-10-09T06:02:40;5.50;;;2.20;;
14342;SDS011;7255;53.596;9.960;2023-10-09T06:05:24;4.40;;;2.33;;
14342;SDS011;7255;53.596;9.960;2023-10-09T06:08:27;2.85;;;2.40;;
14342;SDS011;7255;53.596;9.960;2023-10-09T06:11:14;1.95;;;1.73;;
14342;SDS011;7255;53.596;9.960;2023-10-09T06:13:55;2.72;;;2.20;;
14342;SDS011;7255;53.596;9.960;2023-10-09T06:16:28;3.47;;;2.60;;
14342;SDS011;7255;53.596;9.960;2023-10-09T06:19:07;4.35;;;3.15;;
14342;SDS011;7255;53.596;9.960;2023-10-09T06:21:36;4.60;;;2.50;;
14342;SDS011;7255;53.596;9.960;2023-10-09T06:24:21;3.47;;;2.47;;
14342;SDS011;7255;53.596;9.960;2023-10-09T06:26:49;5.60;;;2.67;;
14342;SDS011;7255;53.596;9.960;2023-10-09T06:29:40;3.28;;;2.35;;
14342;SDS011;7255;53.596;9.960;2023-10-09T06:32:39;3.53;;;2.33;;
14342;SDS011;7255;53.596;9.960;2023-10-09T06:35:17;5.90;;;2.70;;
14342;SDS011;7255;53.596;9.960;2023-10-09T06:37:47;5.12;;;2.75;;
14342;SDS011;7255;53.596;9.960;2023-10-09T06:40:33;5.82;;;2.47;;
14342;SDS011;7255;53.596;9.960;2023-10-09T06:43:18;3.92;;;2.87;;
14342;SDS011;7255;53.596;9.960;2023-10-09T06:45:53;7.15;;;2.85;;
14342;SDS011;7255;53.596;9.960;2023-10-09T06:48:23;2.87;;;2.58;;
14342;SDS011;7255;53.596;9.960;2023-10-09T06:51:11;4.45;;;2.83;;
14342;SDS011;7255;53.596;9.960;2023-10-09T06:53:59;3.65;;;3.00;;
14342;SDS011;7255;53.596;9.960;2023-10-09T06:56:31;4.62;;;3.15;;
14342;SDS011;7255;53.596;9.960;2023-10-09T06:59:12;5.15;;;3.08;;
14342;SDS011;7255;53.596;9.960;2023-10-09T07:01:46;4.20;;;3.85;;
14342;SDS011;7255;53.596;9.960;2023-10-09T07:04:16;6.18;;;3.55;;
14342;SDS011;7255;53.596;9.960;2023-10-09T07:07:06;4.45;;;3.35;;
14342;SDS011;7255;53.596;9.960;2023-10-09T07:09:34;4.82;;;3.72;;
14342;SDS011;7255;53.596;9.960;2023-10-09T07:12:08;4.85;;;3.12;;
14342;SDS011;7255;53.596;9.960;2023-10-09T07:14:35;5.05;;;4.22;;
14342;SDS011;7255;53.596;9.960;2023-10-09T07:17:22;6.87;;;3.80;;
14342;SDS011;7255;53.596;9.960;2023-10-09T07:19:52;7.22;;;3.95;;
14342;SDS011;7255;53.596;9.960;2023-10-09T07:22:38;7.05;;;4.50;;
14342;SDS011;7255;53.596;9.960;2023-10-09T07:25:19;7.10;;;4.93;;
14342;SDS011;7255;53.596;9.960;2023-10-09T07:28:09;5.78;;;4.28;;
14342;SDS011;7255;53.596;9.960;2023-10-09T07:30:54;5.93;;;4.87;;
14342;SDS011;7255;53.596;9.960;2023-10-09T07:33:23;6.30;;;4.28;;
14342;SDS011;7255;53.596;9.960;2023-10-09T07:36:00;5.72;;;4.40;;
14342;SDS011;7255;53.596;9.960;2023-10-09T07:38:32;6.10;;;3.90;;
14342;SDS011;7255;53.596;9.960;2023-10-09T07:41:01;8.32;;;3.80;;
14342;SDS011;7255;53.596;9.960;2023-10-09T07:43:42;3.90;;;3.53;;
14342;SDS011;7255;53.596;9.960;2023-10-09T07:46:11;4.12;;;3.60;;
14342;SDS011;7255;53.596;9.960;2023-10-09T07:48:59;4.00;;;3.65;;
14342;SDS011;7255;53.596;9.960;2023-10-09T07:51:26;3.80;;;3.42;;
14342;SDS011;7255;53.596;9.960;2023-10-09T07:53:58;3.60;;;3.25;;
14342;SDS011;7255;53.596;9.960;2023-10-09T07:56:32;4.32;;;3.40;;
14342;SDS011;7255;53.596;9.960;2023-10-09T07:59:03;3.12;;;2.83;;
14342;SDS011;7255;53.596;9.960;2023-10-09T08:01:35;2.90;;;2.60;;
14342;SDS011;7255;53.596;9.960;2023-10-09T08:04:02;3.08;;;2.40;;
14342;SDS011;7255;53.596;9.960;2023-10-09T08:06:32;3.50;;;2.80;;
14342;SDS011;7255;53.596;9.960;2023-10-09T08:09:05;4.50;;;2.78;;
14342;SDS011;7255;53.596;9.960;2023-10-09T08:11:46;3.08;;;2.78;;
14342;SDS011;7255;53.596;9.960;2023-10-09T08:14:38;4.62;;;3.22;;
14342;SDS011;7255;53.596;9.960;2023-10-09T08:17:08;3.00;;;2.70;;
14342;SDS011;7255;53.596;9.960;2023-10-09T08:19:41;2.92;;;2.65;;
14342;SDS011;7255;53.596;9.960;2023-10-09T08:22:26;5.85;;;2.60;;
14342;SDS011;7255;53.596;9.960;2023-10-09T08:25:18;3.30;;;2.50;;
14342;SDS011;7255;53.596;9.960;2023-10-09T08:27:57;2.80;;;2.60;;
14342;SDS011;7255;53.596;9.960;2023-10-09T08:30:44;3.37;;;2.62;;
14342;SDS011;7255;53.596;9.960;2023-10-09T08:33:16;2.42;;;2.22;;
14342;SDS011;7255;53.596;9.960;2023-10-09T08:36:06;3.92;;;3.03;;
14342;SDS011;7255;53.596;9.960;2023-10-09T08:38:32;3.42;;;2.90;;
14342;SDS011;7255;53.596;9.960;2023-10-09T08:41:07;4.68;;;3.20;;
14342;SDS011;7255;53.596;9.960;2023-10-09T08:46:15;7.53;;;2.58;;
14342;SDS011;7255;53.596;9.960;2023-10-09T08:48:45;2.97;;;2.62;;
14342;SDS011;7255;53.596;9.960;2023-10-09T08:51:12;3.25;;;2.80;;
14342;SDS011;7255;53.596;9.960;2023-10-09T08:53:39;3.05;;;2.72;;
14342;SDS011;7255;53.596;9.960;2023-10-09T08:56:09;4.28;;;2.60;;
14342;SDS011;7255;53.596;9.960;2023-10-09T08:58:36;3.55;;;2.70;;
14342;SDS011;7255;53.596;9.960;2023-10-09T09:01:03;5.10;;;2.85;;
14342;SDS011;7255;53.596;9.960;2023-10-09T09:03:37;3.95;;;3.05;;
14342;SDS011;7255;53.596;9.960;2023-10-09T09:06:04;3.72;;;2.97;;
14342;SDS011;7255;53.596;9.960;2023-10-09T09:08:31;3.92;;;3.53;;
14342;SDS011;7255;53.596;9.960;2023-10-09T09:11:02;3.53;;;3.22;;
14342;SDS011;7255;53.596;9.960;2023-10-09T09:13:38;4.68;;;3.65;;
14342;SDS011;7255;53.596;9.960;2023-10-09T09:16:13;5.40;;;4.57;;
14342;SDS011;7255;53.596;9.960;2023-10-09T09:18:48;4.62;;;4.22;;
14342;SDS011;7255;53.596;9.960;2023-10-09T09:21:21;6.30;;;4.40;;
14342;SDS011;7255;53.596;9.960;2023-10-09T09:23:54;5.80;;;4.78;;
14342;SDS011;7255;53.596;9.960;2023-10-09T09:26:35;5.93;;;5.10;;
14342;SDS011;7255;53.596;9.960;2023-10-09T09:29:05;5.00;;;4.40;;
14342;SDS011;7255;53.596;9.960;2023-10-09T09:31:32;7.07;;;5.00;;
14342;SDS011;7255;53.596;9.960;2023-10-09T09:34:03;4.57;;;4.05;;
14342;SDS011;7255;53.596;9.960;2023-10-09T09:36:43;5.45;;;4.50;;
14342;SDS011;7255;53.596;9.960;2023-10-09T09:39:19;4.85;;;4.35;;
14342;SDS011;7255;53.596;9.960;2023-10-09T09:41:54;4.68;;;3.70;;
14342;SDS011;7255;53.596;9.960;2023-10-09T09:44:23;4.50;;;4.10;;
14342;SDS011;7255;53.596;9.960;2023-10-09T09:46:56;4.55;;;4.00;;
14342;SDS011;7255;53.596;9.960;2023-10-09T09:49:25;4.40;;;3.70;;
14342;SDS011;7255;53.596;9.960;2023-10-09T09:51:56;4.80;;;4.30;;
14342;SDS011;7255;53.596;9.960;2023-10-09T09:54:24;4.55;;;3.65;;
14342;SDS011;7255;53.596;9.960;2023-10-09T09:56:50;4.60;;;4.03;;
14342;SDS011;7255;53.596;9.960;2023-10-09T09:59:19;6.20;;;3.92;;
14342;SDS011;7255;53.596;9.960;2023-10-09T10:01:53;4.87;;;3.90;;
14342;SDS011;7255;53.596;9.960;2023-10-09T10:04:23;4.45;;;4.05;;
14342;SDS011;7255;53.596;9.960;2023-10-09T10:06:52;4.07;;;3.67;;
14342;SDS011;7255;53.596;9.960;2023-10-09T10:09:34;4.75;;;3.33;;
14342;SDS011;7255;53.596;9.960;2023-10-09T10:12:06;3.80;;;3.50;;
14342;SDS011;7255;53.596;9.960;2023-10-09T10:17:24;6.22;;;3.33;;
14342;SDS011;7255;53.596;9.960;2023-10-09T10:19:59;3.67;;;3.33;;
14342;SDS011;7255;53.596;9.960;2023-10-09T10:22:46;3.90;;;3.50;;
14342;SDS011;7255;53.596;9.960;2023-10-09T10:25:27;3.97;;;2.90;;
14342;SDS011;7255;53.596;9.960;2023-10-09T10:28:17;3.60;;;3.20;;
14342;SDS011;7255;53.596;9.960;2023-10-09T10:31:08;3.03;;;2.75;;
14342;SDS011;7255;53.596;9.960;2023-10-09T10:36:35;3.03;;;2.72;;
14342;SDS011;7255;53.596;9.960;2023-10-09T10:39:07;2.62;;;2.40;;
14342;SDS011;7255;53.596;9.960;2023-10-09T10:41:36;2.60;;;2.40;;
14342;SDS011;7255;53.596;9.960;2023-10-09T10:44:15;3.33;;;3.00;;
14342;SDS011;7255;53.596;9.960;2023-10-09T10:47:04;3.00;;;2.58;;
14342;SDS011;7255;53.596;9.960;2023-10-09T10:49:42;2.37;;;2.10;;
14342;SDS011;7255;53.596;9.960;2023-10-09T10:52:19;3.30;;;2.47;;
14342;SDS011;7255;53.596;9.960;2023-10-09T10:54:46;2.92;;;2.60;;
14342;SDS011;7255;53.596;9.960;2023-10-09T10:57:30;2.90;;;2.50;;
14342;SDS011;7255;53.596;9.960;2023-10-09T11:00:18;3.25;;;2.78;;
14342;SDS011;7255;53.596;9.960;2023-10-09T11:03:00;3.25;;;2.95;;
14342;SDS011;7255;53.596;9.960;2023-10-09T11:05:38;3.10;;;2.80;;
14342;SDS011;7255;53.596;9.960;2023-10-09T11:08:09;3.87;;;3.05;;
14342;SDS011;7255;53.596;9.960;2023-10-09T11:10:35;4.95;;;3.22;;
14342;SDS011;7255;53.596;9.960;2023-10-09T11:13:20;3.20;;;3.00;;
14342;SDS011;7255;53.596;9.960;2023-10-09T11:16:00;3.03;;;2.78;;
14342;SDS011;7255;53.596;9.960;2023-10-09T11:18:55;3.40;;;3.10;;
14342;SDS011;7255;53.596;9.960;2023-10-09T11:21:28;3.55;;;3.25;;
14342;SDS011;7255;53.596;9.960;2023-10-09T11:24:05;3.70;;;3.00;;
14342;SDS011;7255;53.596;9.960;2023-10-09T11:26:51;3.65;;;3.10;;
14342;SDS011;7255;53.596;9.960;2023-10-09T11:29:21;3.80;;;2.87;;
14342;SDS011;7255;53.596;9.960;2023-10-09T11:31:57;3.92;;;3.53;;
14342;SDS011;7255;53.596;9.960;2023-10-09T11:34:27;4.57;;;3.67;;
14342;SDS011;7255;53.596;9.960;2023-10-09T11:36:59;3.70;;;3.40;;
14342;SDS011;7255;53.596;9.960;2023-10-09T11:39:28;4.05;;;3.65;;
14342;SDS011;7255;53.596;9.960;2023-10-09T11:42:06;5.00;;;4.50;;
14342;SDS011;7255;53.596;9.960;2023-10-09T11:44:34;5.20;;;4.32;;
14342;SDS011;7255;53.596;9.960;2023-10-09T11:47:02;4.25;;;3.85;;
14342;SDS011;7255;53.596;9.960;2023-10-09T11:49:49;4.30;;;3.90;;
14342;SDS011;7255;53.596;9.960;2023-10-09T11:52:23;4.10;;;3.70;;
14342;SDS011;7255;53.596;9.960;2023-10-09T11:55:01;4.43;;;4.03;;
14342;SDS011;7255;53.596;9.960;2023-10-09T11:57:28;4.12;;;3.72;;
14342;SDS011;7255;53.596;9.960;2023-10-09T11:59:58;4.75;;;3.90;;
14342;SDS011;7255;53.596;9.960;2023-10-09T12:02:26;4.45;;;3.55;;
14342;SDS011;7255;53.596;9.960;2023-10-09T12:04:54;4.60;;;4.20;;
14342;SDS011;7255;53.596;9.960;2023-10-09T12:07:22;4.72;;;3.78;;
14342;SDS011;7255;53.596;9.960;2023-10-09T12:09:50;5.05;;;4.18;;
14342;SDS011;7255;53.596;9.960;2023-10-09T12:12:21;5.43;;;4.40;;
14342;SDS011;7255;53.596;9.960;2023-10-09T12:14:51;4.45;;;4.05;;
14342;SDS011;7255;53.596;9.960;2023-10-09T12:17:18;6.10;;;4.28;;
14342;SDS011;7255;53.596;9.960;2023-10-09T12:19:49;4.32;;;3.87;;
14342;SDS011;7255;53.596;9.960;2023-10-09T12:22:17;7.57;;;3.95;;
14342;SDS011;7255;53.596;9.960;2023-10-09T12:24:46;5.12;;;4.47;;
14342;SDS011;7255;53.596;9.960;2023-10-09T12:27:12;5.10;;;4.28;;
14342;SDS011;7255;53.596;9.960;2023-10-09T12:29:39;4.65;;;4.25;;
14342;SDS011;7255;53.596;9.960;2023-10-09T12:32:09;5.82;;;4.10;;
14342;SDS011;7255;53.596;9.960;2023-10-09T12:34:36;5.78;;;4.60;;
14342;SDS011;7255;53.596;9.960;2023-10-09T12:37:03;4.93;;;4.10;;
14342;SDS011;7255;53.596;9.960;2023-10-09T12:39:32;6.53;;;4.40;;
14342;SDS011;7255;53.596;9.960;2023-10-09T12:41:59;6.78;;;4.87;;
14342;SDS011;7255;53.596;9.960;2023-10-09T12:44:31;5.15;;;4.40;;
14342;SDS011;7255;53.596;9.960;2023-10-09T12:47:04;5.25;;;4.75;;
14342;SDS011;7255;53.596;9.960;2023-10-09T12:49:30;9.10;;;5.10;;
14342;SDS011;7255;53.596;9.960;2023-10-09T12:51:57;5.15;;;4.65;;
14342;SDS011;7255;53.596;9.960;2023-10-09T12:54:24;5.07;;;4.57;;
14342;SDS011;7255;53.596;9.960;2023-10-09T12:56:54;5.22;;;4.72;;
14342;SDS011;7255;53.596;9.960;2023-10-09T12:59:20;6.50;;;5.15;;
14342;SDS011;7255;53.596;9.960;2023-10-09T13:01:49;5.62;;;4.97;;
14342;SDS011;7255;53.596;9.960;2023-10-09T13:04:17;5.47;;;4.80;;
14342;SDS011;7255;53.596;9.960;2023-10-09T13:06:47;5.57;;;5.00;;
14342;SDS011;7255;53.596;9.960;2023-10-09T13:09:17;6.10;;;4.60;;
14342;SDS011;7255;53.596;9.960;2023-10-09T13:11:49;5.85;;;5.07;;
14342;SDS011;7255;53.596;9.960;2023-10-09T13:14:18;5.50;;;4.97;;
14342;SDS011;7255;53.596;9.960;2023-10-09T13:16:46;7.40;;;4.65;;
14342;SDS011;7255;53.596;9.960;2023-10-09T13:19:15;7.20;;;5.43;;
14342;SDS011;7255;53.596;9.960;2023-10-09T13:21:42;6.47;;;4.65;;
14342;SDS011;7255;53.596;9.960;2023-10-09T13:24:09;5.62;;;4.87;;
14342;SDS011;7255;53.596;9.960;2023-10-09T13:26:38;6.00;;;5.37;;
14342;SDS011;7255;53.596;9.960;2023-10-09T13:29:06;6.30;;;5.47;;
14342;SDS011;7255;53.596;9.960;2023-10-09T13:31:36;6.87;;;4.70;;
14342;SDS011;7255;53.596;9.960;2023-10-09T13:34:03;6.12;;;4.97;;
14342;SDS011;7255;53.596;9.960;2023-10-09T13:36:31;6.40;;;5.62;;
14342;SDS011;7255;53.596;9.960;2023-10-09T13:39:00;6.80;;;5.45;;
14342;SDS011;7255;53.596;9.960;2023-10-09T13:41:45;5.72;;;5.18;;
14342;SDS011;7255;53.596;9.960;2023-10-09T13:44:11;6.72;;;4.93;;
14342;SDS011;7255;53.596;9.960;2023-10-09T13:46:39;6.37;;;5.78;;
14342;SDS011;7255;53.596;9.960;2023-10-09T13:49:06;7.18;;;6.47;;
14342;SDS011;7255;53.596;9.960;2023-10-09T13:51:37;5.85;;;5.18;;
14342;SDS011;7255;53.596;9.960;2023-10-09T13:54:08;6.03;;;5.32;;
14342;SDS011;7255;53.596;9.960;2023-10-09T13:56:35;8.10;;;6.70;;
14342;SDS011;7255;53.596;9.960;2023-10-09T13:59:04;9.77;;;7.10;;
14342;SDS011;7255;53.596;9.960;2023-10-09T14:01:35;8.77;;;7.87;;
14342;SDS011;7255;53.596;9.960;2023-10-09T14:04:05;10.30;;;6.72;;
14342;SDS011;7255;53.596;9.960;2023-10-09T14:06:32;8.57;;;7.10;;
14342;SDS011;7255;53.596;9.960;2023-10-09T14:08:59;8.45;;;7.20;;
14342;SDS011;7255;53.596;9.960;2023-10-09T14:11:29;11.52;;;7.57;;
14342;SDS011;7255;53.596;9.960;2023-10-09T14:13:55;8.43;;;7.53;;
14342;SDS011;7255;53.596;9.960;2023-10-09T14:16:25;7.90;;;7.10;;
14342;SDS011;7255;53.596;9.960;2023-10-09T14:18:52;7.82;;;6.72;;
14342;SDS011;7255;53.596;9.960;2023-10-09T14:21:23;7.53;;;6.72;;
14342;SDS011;7255;53.596;9.960;2023-10-09T14:23:50;7.47;;;6.50;;
14342;SDS011;7255;53.596;9.960;2023-10-09T14:26:20;7.82;;;6.60;;
14342;SDS011;7255;53.596;9.960;2023-10-09T14:28:47;6.85;;;6.15;;
14342;SDS011;7255;53.596;9.960;2023-10-09T14:31:13;9.13;;;7.37;;
14342;SDS011;7255;53.596;9.960;2023-10-09T14:33:46;7.43;;;6.62;;
14342;SDS011;7255;53.596;9.960;2023-10-09T14:36:16;7.40;;;6.40;;
14342;SDS011;7255;53.596;9.960;2023-10-09T14:38:44;8.98;;;6.70;;
14342;SDS011;7255;53.596;9.960;2023-10-09T14:41:11;7.03;;;6.22;;
14342;SDS011;7255;53.596;9.960;2023-10-09T14:43:38;9.30;;;5.93;;
14342;SDS011;7255;53.596;9.960;2023-10-09T14:46:05;8.95;;;6.70;;
14342;SDS011;7255;53.596;9.960;2023-10-09T14:48:35;8.25;;;6.15;;
14342;SDS011;7255;53.596;9.960;2023-10-09T14:51:03;6.65;;;5.90;;
14342;SDS011;7255;53.596;9.960;2023-10-09T14:53:30;6.93;;;6.22;;
14342;SDS011;7255;53.596;9.960;2023-10-09T14:56:00;9.15;;;6.62;;
14342;SDS011;7255;53.596;9.960;2023-10-09T14:58:28;7.68;;;6.87;;
14342;SDS011;7255;53.596;9.960;2023-10-09T15:00:57;10.10;;;6.85;;
14342;SDS011;7255;53.596;9.960;2023-10-09T15:03:24;10.27;;;7.18;;
14342;SDS011;7255;53.596;9.960;2023-10-09T15:05:53;8.50;;;6.82;;
14342;SDS011;7255;53.596;9.960;2023-10-09T15:08:19;8.73;;;7.87;;
14342;SDS011;7255;53.596;9.960;2023-10-09T15:10:46;9.20;;;7.50;;
14342;SDS011;7255;53.596;9.960;2023-10-09T15:13:14;9.88;;;7.93;;
14342;SDS011;7255;53.596;9.960;2023-10-09T15:15:42;11.12;;;8.75;;
14342;SDS011;7255;53.596;9.960;2023-10-09T15:18:08;9.30;;;8.27;;
14342;SDS011;7255;53.596;9.960;2023-10-09T15:20:37;11.52;;;8.15;;
14342;SDS011;7255;53.596;9.960;2023-10-09T15:23:04;10.25;;;8.13;;
14342;SDS011;7255;53.596;9.960;2023-10-09T15:25:31;13.98;;;8.20;;
14342;SDS011;7255;53.596;9.960;2023-10-09T15:27:59;10.77;;;8.07;;
14342;SDS011;7255;53.596;9.960;2023-10-09T15:30:26;13.00;;;8.63;;
14342;SDS011;7255;53.596;9.960;2023-10-09T15:32:53;13.65;;;8.73;;
14342;SDS011;7255;53.596;9.960;2023-10-09T15:35:21;9.05;;;7.90;;
14342;SDS011;7255;53.596;9.960;2023-10-09T15:37:48;10.65;;;8.50;;
14342;SDS011;7255;53.596;9.960;2023-10-09T15:40:17;11.50;;;9.27;;
14342;SDS011;7255;53.596;9.960;2023-10-09T15:42:49;13.00;;;8.50;;